Time;durP1;ratioP1;P1;durP2;ratioP2;P2;SDS_P1;SDS_P2;PMS_P1;PMS_P2;Temp;Humidity;BMP_temperature;BMP_pressure;BME280_temperature;BME280_humidity;BME280_pressure;Samples;Min_cycle;Max_cycle;Signal;HPM_P1;HPM_P2
2022/11/25 00:00:01;;;;;;;5.80;4.60;;;6.90;74.80;6.70;96363.00;;;;5040722;28;20296;-85
2022/11/25 00:02:28;;;;;;;11.17;4.00;;;6.90;74.70;6.60;96361.00;;;;5049043;28;20603;-85
2022/11/25 00:04:56;;;;;;;5.53;3.80;;;6.90;74.70;6.60;96368.00;;;;5048800;28;20776;-85
2022/11/25 00:07:24;;;;;;;4.63;4.10;;;6.90;75.00;6.60;96355.00;;;;5045510;28;20228;-85
2022/11/25 00:09:51;;;;;;;7.20;4.00;;;6.80;75.00;6.60;96355.00;;;;5045749;28;20266;-85
2022/11/25 00:12:19;;;;;;;3.93;3.57;;;6.80;74.90;6.50;96355.00;;;;5047539;28;20283;-85
2022/11/25 00:14:46;;;;;;;5.20;4.07;;;6.80;75.10;6.50;96361.00;;;;5045847;28;20319;-85
2022/11/25 00:17:13;;;;;;;7.93;4.17;;;6.80;75.10;6.50;96356.00;;;;5045746;28;20307;-85
2022/11/25 00:19:40;;;;;;;4.83;3.77;;;6.80;75.00;6.50;96360.00;;;;5042500;28;20197;-85
2022/11/25 00:22:07;;;;;;;6.10;3.73;;;6.70;75.00;6.50;96363.00;;;;5048375;28;20197;-85
2022/11/25 00:24:36;;;;;;;4.43;3.60;;;6.70;75.10;6.40;96361.00;;;;5043911;28;21058;-86
2022/11/25 00:27:03;;;;;;;4.97;3.90;;;6.70;75.10;6.40;96366.00;;;;5048890;28;20256;-85
2022/11/25 00:29:31;;;;;;;5.90;3.90;;;6.70;75.10;6.40;96374.00;;;;5043907;28;20203;-85
2022/11/25 00:31:58;;;;;;;4.10;3.70;;;6.70;74.90;6.40;96368.00;;;;5044481;28;20286;-85
2022/11/25 00:34:25;;;;;;;3.73;3.43;;;6.60;74.90;6.40;96380.00;;;;5045401;28;20311;-85
2022/11/25 00:36:53;;;;;;;4.50;3.23;;;6.60;75.00;6.40;96388.00;;;;5049259;28;20370;-85
2022/11/25 00:39:23;;;;;;;8.43;3.90;;;6.60;74.90;6.30;96380.00;;;;5049243;28;20270;-85
2022/11/25 00:44:37;;;;;;;8.90;3.53;;;6.60;75.30;6.30;96386.00;;;;5047680;28;20211;-85
2022/11/25 00:47:08;;;;;;;5.60;3.37;;;6.60;75.60;6.30;96372.00;;;;5047696;28;20216;-85
2022/11/25 00:49:39;;;;;;;3.80;3.33;;;6.60;75.60;6.30;96372.00;;;;5046252;28;20207;-85
2022/11/25 00:52:07;;;;;;;5.10;3.23;;;6.60;75.50;6.30;96375.00;;;;5048894;28;20204;-85
2022/11/25 00:54:35;;;;;;;5.43;3.37;;;6.50;75.40;6.30;96371.00;;;;5048287;28;20204;-85
2022/11/25 00:57:04;;;;;;;10.67;3.77;;;6.50;75.30;6.30;96369.00;;;;5044083;28;20709;-85
2022/11/25 00:59:31;;;;;;;3.43;3.13;;;6.50;75.30;6.30;96370.00;;;;5047641;28;20255;-85
2022/11/25 01:01:59;;;;;;;4.23;3.20;;;6.50;75.50;6.30;96361.00;;;;5047848;28;20311;-85
2022/11/25 01:04:26;;;;;;;3.20;2.90;;;6.50;75.50;6.20;96356.00;;;;5045822;28;20688;-85
2022/11/25 01:06:55;;;;;;;3.53;3.23;;;6.50;75.40;6.20;96363.00;;;;5042485;28;20804;-85
2022/11/25 01:09:23;;;;;;;3.30;3.00;;;6.50;75.30;6.20;96365.00;;;;5048051;28;20207;-85
2022/11/25 01:11:51;;;;;;;13.87;3.93;;;6.50;75.40;6.20;96369.00;;;;5047014;28;20259;-84
2022/11/25 01:14:21;;;;;;;4.73;3.23;;;6.50;75.60;6.20;96359.00;;;;5049507;28;20244;-85
2022/11/25 01:16:50;;;;;;;3.80;2.80;;;6.50;75.50;6.20;96358.00;;;;5047987;28;20732;-85
2022/11/25 01:19:18;;;;;;;9.37;3.60;;;6.50;75.50;6.20;96354.00;;;;5044919;28;20247;-85
2022/11/25 01:21:46;;;;;;;4.20;3.07;;;6.50;75.70;6.20;96358.00;;;;5037564;28;20224;-85
2022/11/25 01:24:15;;;;;;;4.53;3.40;;;6.50;76.00;6.20;96361.00;;;;5044467;28;20192;-84
2022/11/25 01:26:43;;;;;;;3.93;3.10;;;6.50;75.80;6.20;96362.00;;;;5044201;28;20649;-85
2022/11/25 01:29:16;;;;;;;5.50;3.33;;;6.50;75.60;6.20;96359.00;;;;5045016;28;20320;-85
2022/11/25 01:31:47;;;;;;;3.70;3.37;;;6.50;75.40;6.20;96351.00;;;;5044632;28;20601;-85
2022/11/25 01:34:17;;;;;;;3.40;3.10;;;6.40;75.30;6.20;96361.00;;;;5046905;28;20197;-85
2022/11/25 01:36:44;;;;;;;4.60;3.23;;;6.40;75.20;6.20;96366.00;;;;5039166;28;20324;-86
2022/11/25 01:39:17;;;;;;;3.30;2.70;;;6.40;75.10;6.10;96358.00;;;;5046255;28;20301;-85
2022/11/25 01:41:45;;;;;;;4.80;2.90;;;6.40;75.00;6.10;96359.00;;;;5047879;28;20204;-85
2022/11/25 01:44:15;;;;;;;5.37;3.20;;;6.40;75.00;6.10;96367.00;;;;5048039;28;20292;-85
2022/11/25 01:47:03;;;;;;;7.03;3.47;;;6.40;74.90;6.10;96363.00;;;;5045402;28;20256;-85
2022/11/25 01:49:37;;;;;;;10.43;3.73;;;6.40;75.10;6.10;96358.00;;;;5048791;28;20192;-85
2022/11/25 01:52:17;;;;;;;3.30;3.00;;;6.30;75.40;6.00;96365.00;;;;5047384;28;20249;-85
2022/11/25 01:54:53;;;;;;;14.57;3.80;;;6.30;75.30;6.00;96355.00;;;;5047672;28;20276;-85
2022/11/25 01:57:25;;;;;;;6.57;3.50;;;6.30;75.20;6.00;96358.00;;;;5045416;28;20653;-85
2022/11/25 01:59:58;;;;;;;6.23;3.10;;;6.30;75.20;6.00;96360.00;;;;5047771;28;20717;-85
2022/11/25 02:02:29;;;;;;;4.03;3.40;;;6.30;75.20;6.00;96358.00;;;;5045403;28;20236;-85
2022/11/25 02:04:57;;;;;;;4.57;3.13;;;6.30;75.00;6.00;96350.00;;;;5045856;28;20207;-85
2022/11/25 02:07:32;;;;;;;6.27;3.77;;;6.20;74.90;5.90;96358.00;;;;5047217;28;20224;-85
2022/11/25 02:10:03;;;;;;;16.87;3.97;;;6.20;74.80;5.90;96348.00;;;;5047954;28;20279;-85
2022/11/25 02:12:32;;;;;;;6.03;3.60;;;6.20;74.80;5.90;96351.00;;;;5047476;28;20228;-85
2022/11/25 02:15:00;;;;;;;12.77;4.17;;;6.20;74.90;5.90;96351.00;;;;5044415;28;20653;-85
2022/11/25 02:17:29;;;;;;;8.43;3.90;;;6.20;74.90;5.90;96349.00;;;;5044965;28;20977;-85
2022/11/25 02:20:05;;;;;;;5.53;3.43;;;6.20;75.10;5.80;96342.00;;;;5047423;28;20943;-85
2022/11/25 02:22:51;;;;;;;4.77;3.10;;;6.20;75.00;5.80;96353.00;;;;5047403;28;20283;-85
2022/11/25 02:25:24;;;;;;;4.30;3.07;;;6.10;74.90;5.80;96348.00;;;;5045917;28;20315;-84
2022/11/25 02:27:56;;;;;;;3.97;3.07;;;6.10;74.90;5.80;96344.00;;;;5044796;28;20208;-84
2022/11/25 02:30:24;;;;;;;6.53;3.13;;;6.10;75.00;5.80;96340.00;;;;5046311;28;20264;-85
2022/11/25 02:32:51;;;;;;;4.13;3.00;;;6.10;75.90;5.80;96342.00;;;;5045557;28;20197;-84
2022/11/25 02:35:33;;;;;;;6.00;2.90;;;6.10;75.30;5.80;96339.00;;;;5045584;28;20307;-85
2022/11/25 02:38:09;;;;;;;4.00;3.00;;;6.10;75.10;5.80;96338.00;;;;5043733;28;20728;-85
2022/11/25 02:40:45;;;;;;;5.00;2.90;;;6.10;75.20;5.80;96328.00;;;;5046736;28;20764;-85
2022/11/25 02:43:13;;;;;;;6.20;3.07;;;6.10;75.20;5.80;96325.00;;;;5046098;28;20242;-85
2022/11/25 02:45:58;;;;;;;2.70;2.50;;;6.10;75.50;5.80;96332.00;;;;5047606;28;20248;-85
2022/11/25 02:48:28;;;;;;;3.73;2.57;;;6.10;75.40;5.80;96339.00;;;;5045558;28;20270;-85
2022/11/25 02:50:57;;;;;;;3.57;2.50;;;6.10;75.20;5.80;96336.00;;;;5046606;28;20254;-85
2022/11/25 02:53:25;;;;;;;2.90;2.70;;;6.10;75.20;5.80;96337.00;;;;5045414;28;20672;-85
2022/11/25 02:55:53;;;;;;;5.07;2.70;;;6.00;75.10;5.80;96335.00;;;;5044788;28;20665;-85
2022/11/25 02:58:21;;;;;;;3.70;2.73;;;6.10;75.10;5.80;96337.00;;;;5042662;28;20295;-85
2022/11/25 03:00:49;;;;;;;3.30;3.00;;;6.00;75.10;5.80;96348.00;;;;5043394;28;20207;-85
2022/11/25 03:03:17;;;;;;;4.00;2.93;;;6.00;75.10;5.80;96345.00;;;;5044711;28;20284;-85
2022/11/25 03:05:44;;;;;;;3.10;2.90;;;6.00;75.10;5.80;96346.00;;;;5044370;28;20319;-85
2022/11/25 03:08:12;;;;;;;2.90;2.70;;;6.00;75.30;5.80;96348.00;;;;5042796;28;20572;-85
2022/11/25 03:10:40;;;;;;;5.37;2.70;;;6.00;75.20;5.80;96349.00;;;;5044616;28;20725;-85
2022/11/25 03:13:09;;;;;;;4.57;3.57;;;6.00;75.10;5.80;96337.00;;;;5043220;28;20654;-84
2022/11/25 03:15:37;;;;;;;2.60;2.40;;;6.00;75.30;5.80;96337.00;;;;5043703;28;20315;-85
2022/11/25 03:18:05;;;;;;;3.70;2.83;;;6.00;75.40;5.80;96339.00;;;;5043139;28;20288;-85
2022/11/25 03:20:36;;;;;;;6.83;2.87;;;6.00;75.70;5.80;96339.00;;;;5046040;28;20239;-85
2022/11/25 03:23:05;;;;;;;4.47;2.50;;;6.00;75.80;5.80;96331.00;;;;5045148;28;20232;-85
2022/11/25 03:25:32;;;;;;;3.10;2.67;;;6.00;75.80;5.80;96342.00;;;;5044948;28;20331;-85
2022/11/25 03:28:00;;;;;;;3.93;2.47;;;6.00;75.60;5.80;96334.00;;;;5045460;28;20680;-85
2022/11/25 03:30:30;;;;;;;3.00;2.37;;;6.00;75.70;5.80;96331.00;;;;5045933;28;20631;-85
2022/11/25 03:32:57;;;;;;;2.73;2.53;;;6.10;75.80;5.80;96336.00;;;;5045745;28;20223;-85
2022/11/25 03:35:24;;;;;;;3.20;2.43;;;6.10;75.80;5.80;96335.00;;;;5045254;28;20310;-85
2022/11/25 03:37:52;;;;;;;2.67;2.47;;;6.10;75.80;5.80;96335.00;;;;5046605;28;20744;-85
2022/11/25 03:40:19;;;;;;;9.87;2.63;;;6.10;75.60;5.80;96334.00;;;;5046101;28;20232;-86
2022/11/25 03:42:46;;;;;;;2.43;2.33;;;6.10;75.50;5.80;96347.00;;;;5044928;28;20292;-86
2022/11/25 03:45:15;;;;;;;3.30;2.57;;;6.10;75.50;5.80;96348.00;;;;5046833;28;20780;-86
2022/11/25 03:47:45;;;;;;;9.33;3.00;;;6.10;75.30;5.80;96352.00;;;;5048926;28;21047;-85
2022/11/25 03:50:14;;;;;;;12.90;2.93;;;6.10;75.40;5.80;96349.00;;;;5050423;28;20278;-86
2022/11/25 03:52:41;;;;;;;2.77;2.57;;;6.10;75.60;5.80;96359.00;;;;5049596;28;20291;-85
2022/11/25 03:55:11;;;;;;;2.77;2.57;;;6.10;75.70;5.80;96356.00;;;;5050986;28;20197;-84
2022/11/25 03:57:38;;;;;;;3.10;2.63;;;6.00;75.60;5.80;96354.00;;;;5049727;28;20568;-85
2022/11/25 04:00:08;;;;;;;3.37;2.40;;;6.00;75.50;5.80;96340.00;;;;5049752;28;20201;-86
2022/11/25 04:02:35;;;;;;;5.77;2.90;;;6.10;75.50;5.80;96342.00;;;;5049665;28;20212;-85
2022/11/25 04:05:04;;;;;;;8.40;2.90;;;6.10;75.50;5.80;96346.00;;;;5049221;28;20296;-85
2022/11/25 04:07:31;;;;;;;2.30;2.10;;;6.10;75.70;5.80;96348.00;;;;5048966;28;20220;-85
2022/11/25 04:09:58;;;;;;;2.63;2.20;;;6.10;75.80;5.80;96354.00;;;;5048509;28;20292;-85
2022/11/25 04:15:11;;;;;;;3.60;2.37;;;6.10;75.70;5.80;96358.00;;;;5046124;28;20246;-86
2022/11/25 04:17:38;;;;;;;3.17;2.70;;;6.10;75.90;5.80;96366.00;;;;5047349;28;20657;-86
2022/11/25 04:20:08;;;;;;;3.80;2.10;;;6.10;75.80;5.80;96362.00;;;;5047491;28;20295;-85
2022/11/25 04:22:36;;;;;;;7.90;2.73;;;6.10;75.90;5.80;96367.00;;;;5046854;28;20735;-85
2022/11/25 04:25:04;;;;;;;3.23;2.03;;;6.10;76.10;5.80;96370.00;;;;5047899;28;20207;-85
2022/11/25 04:27:31;;;;;;;3.27;2.43;;;6.10;76.20;5.80;96375.00;;;;5048052;28;20228;-85
2022/11/25 04:29:58;;;;;;;2.37;1.93;;;6.10;76.10;5.80;96363.00;;;;5048706;28;20201;-85
2022/11/25 04:32:25;;;;;;;2.10;2.00;;;6.10;75.80;5.80;96371.00;;;;5047992;28;20287;-85
2022/11/25 04:34:52;;;;;;;4.10;2.70;;;6.10;75.50;5.80;96375.00;;;;5049175;28;20259;-85
2022/11/25 04:37:21;;;;;;;3.27;2.37;;;6.10;75.30;5.80;96374.00;;;;5050005;28;20279;-85
2022/11/25 04:39:48;;;;;;;2.17;2.07;;;6.10;75.20;5.80;96363.00;;;;5048440;28;20303;-85
2022/11/25 04:42:35;;;;;;;2.27;2.07;;;6.10;75.20;5.80;96373.00;;;;5049680;28;20728;-85
2022/11/25 04:45:06;;;;;;;2.33;2.13;;;6.10;75.10;5.80;96369.00;;;;5048496;28;20309;-85
2022/11/25 04:47:33;;;;;;;4.87;2.27;;;6.10;75.00;5.70;96361.00;;;;5048052;28;20212;-85
2022/11/25 04:50:01;;;;;;;2.30;2.10;;;6.10;75.10;5.70;96379.00;;;;5050836;28;20215;-85
2022/11/25 04:52:29;;;;;;;2.43;2.20;;;6.00;75.10;5.70;96370.00;;;;5050723;28;20909;-85
2022/11/25 04:54:56;;;;;;;2.27;2.17;;;6.00;75.00;5.70;96379.00;;;;5049608;28;20205;-85
2022/11/25 04:57:24;;;;;;;3.17;2.00;;;6.00;75.00;5.70;96379.00;;;;5049957;28;20315;-85
2022/11/25 04:59:50;;;;;;;3.77;2.30;;;6.00;75.00;5.60;96370.00;;;;5049638;28;20192;-85
2022/11/25 05:02:21;;;;;;;2.20;2.00;;;6.00;74.90;5.70;96370.00;;;;5049692;28;20211;-85
2022/11/25 05:04:52;;;;;;;4.10;2.53;;;6.00;75.00;5.70;96367.00;;;;5050001;28;20281;-85
2022/11/25 05:07:23;;;;;;;1.90;1.80;;;6.00;75.10;5.60;96354.00;;;;5050742;28;20233;-86
2022/11/25 05:09:51;;;;;;;2.00;1.90;;;5.90;75.20;5.60;96362.00;;;;5050469;28;20267;-86
2022/11/25 05:12:22;;;;;;;2.40;2.20;;;5.90;75.30;5.60;96361.00;;;;5049223;28;20239;-85
2022/11/25 05:14:49;;;;;;;2.90;2.60;;;6.00;75.40;5.60;96362.00;;;;5049229;28;20660;-86
2022/11/25 05:17:19;;;;;;;2.73;2.23;;;6.00;75.50;5.70;96369.00;;;;5048845;28;20316;-86
2022/11/25 05:19:47;;;;;;;5.13;2.37;;;6.00;75.50;5.70;96356.00;;;;5049684;28;20255;-86
2022/11/25 05:22:18;;;;;;;3.93;2.70;;;5.90;76.20;5.70;96361.00;;;;5050170;28;20251;-86
2022/11/25 05:24:47;;;;;;;2.07;1.80;;;5.90;75.50;5.70;96374.00;;;;5046442;28;20511;-86
2022/11/25 05:27:17;;;;;;;3.87;2.10;;;6.00;75.90;5.70;96372.00;;;;5047247;28;20228;-86
2022/11/25 05:29:44;;;;;;;2.33;2.07;;;6.00;75.80;5.70;96375.00;;;;5046232;28;20714;-86
2022/11/25 05:32:12;;;;;;;2.80;2.17;;;6.00;75.70;5.70;96366.00;;;;5047398;28;20291;-86
2022/11/25 05:34:41;;;;;;;2.50;2.30;;;6.00;75.80;5.70;96377.00;;;;5045824;28;20260;-86
2022/11/25 05:37:10;;;;;;;2.37;2.10;;;6.00;75.90;5.80;96370.00;;;;5043736;28;20358;-87
2022/11/25 05:39:38;;;;;;;2.30;2.10;;;6.00;76.00;5.70;96368.00;;;;5044329;28;20221;-85
2022/11/25 05:42:05;;;;;;;2.33;2.23;;;6.00;76.00;5.80;96369.00;;;;5048256;28;20863;-84
2022/11/25 05:44:33;;;;;;;3.63;2.43;;;6.00;75.90;5.70;96365.00;;;;5050179;28;20625;-85
2022/11/25 05:47:01;;;;;;;2.73;2.30;;;6.10;75.80;5.80;96358.00;;;;5046027;28;20280;-87
2022/11/25 05:49:28;;;;;;;3.40;3.10;;;6.00;75.60;5.70;96360.00;;;;5042656;28;20232;-87
2022/11/25 05:51:55;;;;;;;4.53;3.03;;;6.00;75.50;5.70;96375.00;;;;5045229;28;20306;-85
2022/11/25 05:54:22;;;;;;;2.83;2.37;;;6.00;75.50;5.70;96377.00;;;;5042659;28;20624;-86
2022/11/25 05:56:49;;;;;;;2.27;2.07;;;6.10;75.50;5.70;96369.00;;;;5044084;28;20246;-85
2022/11/25 05:59:16;;;;;;;2.73;2.47;;;6.00;75.30;5.80;96380.00;;;;5064389;28;20288;-85
2022/11/25 06:01:45;;;;;;;2.50;2.30;;;6.00;75.40;5.80;96374.00;;;;5052772;28;20296;-85
2022/11/25 06:04:12;;;;;;;2.90;2.30;;;6.00;75.40;5.80;96376.00;;;;5052441;28;20255;-85
2022/11/25 06:06:39;;;;;;;7.17;2.23;;;6.10;75.50;5.80;96373.00;;;;5054865;28;20224;-85
2022/11/25 06:09:07;;;;;;;9.00;2.83;;;6.00;75.50;5.90;96375.00;;;;5059914;28;20228;-85
2022/11/25 06:11:34;;;;;;;4.47;2.60;;;6.00;75.50;5.90;96362.00;;;;5052659;28;20292;-85
2022/11/25 06:14:01;;;;;;;6.07;2.90;;;6.00;75.50;5.90;96368.00;;;;5059923;28;20196;-85
2022/11/25 06:16:28;;;;;;;9.40;3.10;;;6.10;75.50;5.90;96381.00;;;;5052525;28;20333;-85
2022/11/25 06:19:04;;;;;;;9.77;3.10;;;6.10;75.40;5.90;96386.00;;;;5052201;28;20205;-84
2022/11/25 06:21:31;;;;;;;8.60;3.30;;;6.10;75.30;5.90;96382.00;;;;5052939;28;20201;-84
2022/11/25 06:23:58;;;;;;;7.03;2.90;;;6.00;75.20;5.90;96376.00;;;;5052207;28;20296;-84
2022/11/25 06:26:25;;;;;;;7.67;3.03;;;6.00;75.20;5.90;96375.00;;;;5052357;28;20220;-85
2022/11/25 06:28:55;;;;;;;18.07;3.60;;;6.00;75.40;5.90;96384.00;;;;5051657;28;20284;-86
2022/11/25 06:31:25;;;;;;;8.17;3.53;;;6.00;75.30;5.90;96384.00;;;;5051879;28;20295;-85
2022/11/25 06:33:53;;;;;;;3.37;3.07;;;6.00;75.30;5.90;96388.00;;;;5051987;28;20228;-85
2022/11/25 06:36:23;;;;;;;3.33;3.13;;;6.00;75.30;5.90;96394.00;;;;5052036;28;20256;-85
2022/11/25 06:38:54;;;;;;;6.27;3.27;;;6.00;75.30;5.90;96399.00;;;;5052080;28;20296;-85
2022/11/25 06:41:22;;;;;;;4.20;3.47;;;6.00;75.30;5.90;96395.00;;;;5052876;28;20200;-85
2022/11/25 06:43:50;;;;;;;4.00;3.70;;;6.00;75.20;5.80;96394.00;;;;5052462;28;20228;-85
2022/11/25 06:46:20;;;;;;;3.40;3.20;;;6.00;75.30;5.90;96396.00;;;;5052583;28;20240;-85
2022/11/25 06:48:47;;;;;;;3.40;3.20;;;6.00;75.20;5.80;96390.00;;;;5052441;28;20201;-85
2022/11/25 06:51:17;;;;;;;3.30;2.90;;;6.00;75.30;5.90;96400.00;;;;5052348;28;20205;-85
2022/11/25 06:53:46;;;;;;;5.90;2.83;;;6.00;75.20;5.90;96389.00;;;;5052270;28;20223;-85
2022/11/25 06:56:16;;;;;;;3.07;2.87;;;6.00;75.20;5.90;96403.00;;;;5052105;28;20324;-86
2022/11/25 06:58:46;;;;;;;4.90;3.30;;;6.00;75.50;5.90;96403.00;;;;5052714;28;20863;-86
2022/11/25 07:01:15;;;;;;;3.33;3.03;;;6.00;75.70;5.90;96391.00;;;;5052206;28;20240;-86
2022/11/25 07:03:43;;;;;;;3.23;2.93;;;6.00;75.90;6.00;96396.00;;;;5052426;28;20283;-85
2022/11/25 07:06:12;;;;;;;3.50;3.20;;;6.00;76.10;6.00;96390.00;;;;5051885;28;20221;-85
2022/11/25 07:08:40;;;;;;;2.80;2.60;;;6.10;76.20;6.00;96388.00;;;;5052382;28;20592;-86
2022/11/25 07:11:16;;;;;;;3.07;2.87;;;6.10;76.40;6.10;96387.00;;;;5052478;28;20715;-85
2022/11/25 07:13:43;;;;;;;2.87;2.50;;;6.20;76.60;6.10;96379.00;;;;5051786;28;20192;-85
2022/11/25 07:16:12;;;;;;;3.33;3.03;;;6.20;76.60;6.20;96385.00;;;;5051927;28;20220;-85
2022/11/25 07:18:40;;;;;;;3.50;2.43;;;6.20;76.60;6.20;96383.00;;;;5052286;28;20295;-85
2022/11/25 07:21:11;;;;;;;10.50;2.40;;;6.30;76.70;6.30;96391.00;;;;5053761;28;20209;-87
2022/11/25 07:23:40;;;;;;;2.80;2.47;;;6.30;76.70;6.30;96403.00;;;;5055446;28;20216;-85
2022/11/25 07:26:12;;;;;;;2.87;2.67;;;6.30;76.80;6.40;96393.00;;;;5055478;28;20602;-85
2022/11/25 07:28:40;;;;;;;3.47;2.83;;;6.40;77.10;6.40;96403.00;;;;5054798;28;20279;-85
2022/11/25 07:31:12;;;;;;;3.20;2.50;;;6.50;77.40;6.50;96409.00;;;;5055359;28;20208;-85
2022/11/25 07:33:40;;;;;;;2.73;2.53;;;6.50;77.40;6.60;96413.00;;;;5055441;28;20212;-85
2022/11/25 07:36:10;;;;;;;2.87;2.60;;;6.60;77.50;6.60;96415.00;;;;5055591;28;20319;-85
2022/11/25 07:38:38;;;;;;;3.10;2.80;;;6.60;77.50;6.70;96409.00;;;;5055297;28;20278;-84
2022/11/25 07:41:09;;;;;;;4.33;3.37;;;6.70;77.60;6.80;96413.00;;;;5055449;28;20287;-85
2022/11/25 07:43:37;;;;;;;4.53;3.57;;;6.70;77.60;6.80;96418.00;;;;5055288;28;20197;-85
2022/11/25 07:46:13;;;;;;;3.20;3.00;;;6.80;77.70;6.90;96428.00;;;;5055191;28;20231;-85
2022/11/25 07:48:41;;;;;;;3.83;3.03;;;6.80;77.60;7.00;96439.00;;;;5055406;28;20279;-85
2022/11/25 07:51:16;;;;;;;3.13;2.90;;;6.90;77.60;7.00;96425.00;;;;5055141;28;20291;-85
2022/11/25 07:53:44;;;;;;;4.80;3.30;;;7.00;77.60;7.10;96431.00;;;;5055413;28;20231;-85
2022/11/25 07:56:13;;;;;;;3.50;3.20;;;7.00;77.60;7.10;96431.00;;;;5054674;28;20255;-85
2022/11/25 07:58:41;;;;;;;3.60;3.10;;;7.10;77.80;7.20;96436.00;;;;5053790;28;20225;-85
2022/11/25 08:01:12;;;;;;;3.47;3.17;;;7.10;78.00;7.20;96426.00;;;;5055052;28;20300;-84
2022/11/25 08:03:43;;;;;;;3.07;2.73;;;7.20;77.80;7.30;96424.00;;;;5053296;28;20205;-85
2022/11/25 08:06:13;;;;;;;3.40;3.10;;;7.20;77.80;7.30;96429.00;;;;5054525;28;20311;-85
2022/11/25 08:08:42;;;;;;;2.73;2.53;;;7.30;77.80;7.30;96434.00;;;;5054622;28;20610;-85
2022/11/25 08:11:15;;;;;;;2.90;2.70;;;7.30;77.80;7.40;96448.00;;;;5054848;28;20239;-85
2022/11/25 08:13:42;;;;;;;2.90;2.70;;;7.40;77.80;7.40;96450.00;;;;5054827;28;20235;-85
2022/11/25 08:16:12;;;;;;;3.93;2.80;;;7.40;77.80;7.50;96451.00;;;;5054968;28;20643;-85
2022/11/25 08:18:40;;;;;;;3.03;2.83;;;7.50;77.70;7.50;96455.00;;;;5054653;28;20304;-84
2022/11/25 08:21:10;;;;;;;3.20;2.90;;;7.50;77.70;7.60;96463.00;;;;5054539;28;20291;-85
2022/11/25 08:23:41;;;;;;;3.10;2.90;;;7.50;77.60;7.60;96457.00;;;;5054963;28;20713;-85
2022/11/25 08:26:14;;;;;;;4.17;3.60;;;7.60;77.60;7.60;96458.00;;;;5054583;28;20741;-85
2022/11/25 08:28:42;;;;;;;3.97;3.67;;;7.60;77.50;7.70;96458.00;;;;5054518;28;20638;-85
2022/11/25 08:31:13;;;;;;;4.20;3.80;;;7.60;77.60;7.70;96449.00;;;;5053856;28;20197;-85
2022/11/25 08:33:41;;;;;;;6.10;4.23;;;7.70;77.70;7.80;96449.00;;;;5054561;28;20227;-85
2022/11/25 08:36:11;;;;;;;4.00;3.70;;;7.70;77.70;7.80;96451.00;;;;5054640;28;20290;-85
2022/11/25 08:38:39;;;;;;;4.60;3.90;;;7.80;77.80;7.80;96451.00;;;;5055084;28;20592;-85
2022/11/25 08:41:11;;;;;;;4.73;4.30;;;7.80;77.80;7.80;96454.00;;;;5055109;28;20232;-85
2022/11/25 08:43:41;;;;;;;4.07;3.43;;;7.80;77.90;7.90;96459.00;;;;5055142;28;20212;-85
2022/11/25 08:46:11;;;;;;;4.57;3.67;;;7.90;77.90;8.00;96461.00;;;;5054988;28;20302;-85
2022/11/25 08:48:38;;;;;;;4.33;3.93;;;7.90;77.90;8.00;96463.00;;;;5055183;28;20311;-85
2022/11/25 08:51:11;;;;;;;4.40;4.00;;;8.00;77.90;8.00;96463.00;;;;5054427;28;20242;-84
2022/11/25 08:53:40;;;;;;;4.73;3.87;;;8.00;77.80;8.10;96464.00;;;;5054333;28;20722;-85
2022/11/25 08:56:09;;;;;;;4.53;3.70;;;8.00;77.80;8.10;96472.00;;;;5054240;28;20308;-85
2022/11/25 08:58:37;;;;;;;5.07;4.03;;;8.10;77.90;8.10;96463.00;;;;5054109;28;20270;-84
2022/11/25 09:01:07;;;;;;;5.40;4.47;;;8.10;78.00;8.10;96472.00;;;;5054183;28;20265;-85
2022/11/25 09:03:37;;;;;;;5.70;4.00;;;8.10;78.10;8.20;96488.00;;;;5053969;28;20243;-85
2022/11/25 09:06:06;;;;;;;4.60;4.10;;;8.20;78.20;8.20;96487.00;;;;5054060;28;20248;-85
2022/11/25 09:08:33;;;;;;;5.13;4.60;;;8.20;78.20;8.30;96494.00;;;;5054339;28;20639;-85
2022/11/25 09:11:01;;;;;;;5.00;4.53;;;8.30;78.30;8.30;96495.00;;;;5053729;28;20227;-82
2022/11/25 09:13:28;;;;;;;5.50;4.17;;;8.30;78.30;8.40;96496.00;;;;5053576;28;20200;-82
2022/11/25 09:15:56;;;;;;;10.73;4.63;;;8.30;78.30;8.50;96513.00;;;;5050999;28;20312;-82
2022/11/25 09:18:25;;;;;;;7.77;5.47;;;8.40;78.40;8.50;96505.00;;;;5053090;28;20701;-83
2022/11/25 09:20:53;;;;;;;6.07;5.13;;;8.40;78.50;8.60;96509.00;;;;5053091;28;20232;-83
2022/11/25 09:23:22;;;;;;;4.93;4.20;;;8.50;78.70;8.70;96524.00;;;;5053637;28;20225;-83
2022/11/25 09:25:53;;;;;;;6.43;4.47;;;8.60;78.80;8.80;96529.00;;;;5053996;28;20227;-83
2022/11/25 09:28:20;;;;;;;6.00;5.30;;;8.70;78.70;8.80;96527.00;;;;5053544;28;20196;-83
2022/11/25 09:30:48;;;;;;;6.23;5.30;;;8.70;78.80;8.90;96520.00;;;;5053880;28;20232;-83
2022/11/25 09:33:16;;;;;;;5.63;4.97;;;8.80;78.80;9.00;96525.00;;;;5033938;28;20197;-83
2022/11/25 09:35:46;;;;;;;12.00;6.10;;;8.80;78.80;9.10;96530.00;;;;5034397;28;20344;-83
2022/11/25 09:38:13;;;;;;;5.10;4.70;;;8.90;79.10;9.20;96527.00;;;;5033735;28;20229;-83
2022/11/25 09:40:47;;;;;;;7.17;5.67;;;9.00;79.40;9.40;96518.00;;;;5048558;28;20303;-83
2022/11/25 09:46:45;;;;;;;4.73;4.33;;;9.30;80.70;9.90;96531.00;;;;5053520;28;20226;-83
2022/11/25 09:49:47;;;;;;;4.20;3.80;;;9.60;80.80;10.10;96516.00;;;;5054113;28;20215;-83
2022/11/25 09:52:30;;;;;;;4.93;3.80;;;9.70;80.60;10.40;96520.00;;;;5053422;28;20246;-83
2022/11/25 09:55:06;;;;;;;4.97;3.60;;;10.00;81.20;10.60;96514.00;;;;5052820;28;20553;-83
2022/11/25 09:57:52;;;;;;;4.50;3.23;;;10.20;81.30;10.80;96521.00;;;;5053494;28;20296;-83
2022/11/25 10:00:21;;;;;;;3.03;2.83;;;10.50;80.80;11.10;96528.00;;;;5053430;28;20352;-83
2022/11/25 10:03:04;;;;;;;3.10;2.80;;;10.70;80.80;11.30;96528.00;;;;5053073;28;20295;-83
2022/11/25 10:05:37;;;;;;;2.63;2.30;;;11.00;80.50;11.50;96528.00;;;;5053259;28;20291;-83
2022/11/25 10:08:14;;;;;;;2.77;1.90;;;11.20;80.30;11.70;96537.00;;;;5052907;28;20204;-83
2022/11/25 10:10:46;;;;;;;2.60;1.80;;;11.50;79.80;11.80;96532.00;;;;5052771;28;20607;-83
2022/11/25 10:13:24;;;;;;;3.30;1.70;;;11.60;79.50;12.00;96537.00;;;;5052479;28;20204;-83
2022/11/25 10:15:57;;;;;;;3.83;1.40;;;11.80;78.50;12.20;96536.00;;;;5039502;28;20568;-81
2022/11/25 10:18:34;;;;;;;1.60;1.40;;;12.00;78.00;12.30;96538.00;;;;5052503;28;20244;-84
2022/11/25 10:21:01;;;;;;;1.67;1.40;;;12.20;77.30;12.50;96540.00;;;;5052768;28;20212;-85
2022/11/25 10:23:34;;;;;;;2.63;1.27;;;12.30;76.70;12.60;96532.00;;;;5052317;28;20265;-84
2022/11/25 10:26:12;;;;;;;2.20;1.27;;;12.50;75.40;12.70;96530.00;;;;5051995;28;20752;-84
2022/11/25 10:28:50;;;;;;;1.30;1.20;;;12.60;74.70;12.70;96531.00;;;;5050606;28;20231;-84
2022/11/25 10:31:23;;;;;;;1.20;1.10;;;12.60;73.80;12.70;96536.00;;;;5053053;28;20201;-84
2022/11/25 10:33:55;;;;;;;1.20;1.07;;;12.70;73.40;12.70;96528.00;;;;5052731;28;20230;-83
2022/11/25 10:36:27;;;;;;;1.37;1.27;;;12.70;72.30;12.60;96533.00;;;;5052316;28;20315;-84
2022/11/25 10:39:02;;;;;;;1.57;1.00;;;12.70;72.10;12.60;96530.00;;;;5053870;28;20720;-84
2022/11/25 10:41:45;;;;;;;1.37;1.27;;;12.70;71.90;12.60;96532.00;;;;5048105;28;20283;-84
2022/11/25 10:44:25;;;;;;;1.60;1.30;;;12.60;71.10;12.50;96529.00;;;;5040726;28;20286;-84
2022/11/25 10:47:12;;;;;;;3.00;1.23;;;12.60;71.10;12.50;96522.00;;;;5052053;28;20674;-85
2022/11/25 10:49:51;;;;;;;2.93;1.60;;;12.60;70.80;12.40;96513.00;;;;5051413;28;20185;-84
2022/11/25 10:52:23;;;;;;;3.43;1.33;;;12.50;70.60;12.40;96517.00;;;;5050503;28;20205;-84
2022/11/25 10:55:07;;;;;;;2.20;1.50;;;12.40;70.60;12.40;96521.00;;;;5051707;28;20204;-84
2022/11/25 10:57:35;;;;;;;1.43;1.10;;;12.40;70.20;12.30;96521.00;;;;5055977;28;20224;-85
2022/11/25 11:00:07;;;;;;;1.93;1.40;;;12.40;70.90;12.30;96521.00;;;;5056219;28;20235;-84
2022/11/25 11:02:40;;;;;;;1.37;1.20;;;12.30;71.10;12.20;96520.00;;;;5056126;28;20618;-84
2022/11/25 11:05:22;;;;;;;4.20;1.33;;;12.30;70.80;12.20;96519.00;;;;5056216;28;20235;-84
2022/11/25 11:08:16;;;;;;;3.37;1.23;;;12.20;70.80;12.20;96517.00;;;;5056009;28;20224;-84
2022/11/25 11:10:45;;;;;;;1.90;1.50;;;12.20;70.80;12.20;96525.00;;;;5056305;28;20723;-85
2022/11/25 11:13:25;;;;;;;3.00;1.40;;;12.20;71.60;12.10;96519.00;;;;5057174;28;20228;-83
2022/11/25 11:15:54;;;;;;;2.63;1.33;;;12.10;71.70;12.10;96519.00;;;;5056445;28;20216;-85
2022/11/25 11:18:26;;;;;;;1.50;1.07;;;12.10;72.00;12.10;96509.00;;;;5056127;28;20246;-85
2022/11/25 11:20:57;;;;;;;1.83;1.70;;;12.10;71.60;12.10;96511.00;;;;5056261;28;20204;-83
2022/11/25 11:23:26;;;;;;;1.30;1.17;;;12.10;71.70;12.10;96517.00;;;;5056481;28;20646;-84
2022/11/25 11:26:03;;;;;;;1.87;1.30;;;12.10;71.60;12.10;96512.00;;;;5056394;28;20284;-84
2022/11/25 11:28:40;;;;;;;1.90;1.33;;;12.10;71.10;12.10;96508.00;;;;5056809;28;20231;-82